createdAt,value
2023-01-25T00:02:00.021Z,13.50
2023-01-25T00:04:29.139Z,11.63
2023-01-25T00:06:58.581Z,12.27
2023-01-25T00:09:27.912Z,11.27
2023-01-25T00:11:58.316Z,12.77
2023-01-25T00:14:28.719Z,12.00
2023-01-25T00:16:57.709Z,13.10
2023-01-25T00:19:26.398Z,11.23
2023-01-25T00:21:55.654Z,14.20
2023-01-25T00:24:26.007Z,12.87
2023-01-25T00:26:54.959Z,11.67
2023-01-25T00:29:23.846Z,12.67
2023-01-25T00:32:00.189Z,13.53
2023-01-25T00:34:46.851Z,13.07
2023-01-25T00:37:43.430Z,11.23
2023-01-25T00:40:16.060Z,14.60
2023-01-25T00:42:44.965Z,15.53
2023-01-25T00:45:14.229Z,13.67
2023-01-25T00:47:44.363Z,13.53
2023-01-25T00:50:13.303Z,13.87
2023-01-25T00:52:42.365Z,14.83
2023-01-25T00:55:11.363Z,16.47
2023-01-25T00:57:40.189Z,13.43
2023-01-25T01:00:10.494Z,14.17
2023-01-25T01:02:39.482Z,13.63
2023-01-25T01:05:10.856Z,16.67
2023-01-25T01:07:40.127Z,13.33
2023-01-25T01:10:10.159Z,12.50
2023-01-25T01:12:38.999Z,14.03
2023-01-25T01:15:09.526Z,13.90
2023-01-25T01:17:38.512Z,13.53
2023-01-25T01:20:09.912Z,13.27
2023-01-25T01:22:38.823Z,12.27
2023-01-25T01:25:09.227Z,17.63
2023-01-25T01:27:38.551Z,13.33
2023-01-25T01:30:08.996Z,14.70
2023-01-25T01:32:37.910Z,15.00
2023-01-25T01:35:08.101Z,15.80
2023-01-25T01:37:38.597Z,12.53
2023-01-25T01:40:09.536Z,14.23
2023-01-25T01:42:59.963Z,15.20
2023-01-25T01:45:51.699Z,13.07
2023-01-25T01:48:30.894Z,14.13
2023-01-25T01:51:05.135Z,11.97
2023-01-25T01:53:36.557Z,15.30
2023-01-25T01:56:09.596Z,14.00
2023-01-25T01:58:38.668Z,14.43
2023-01-25T02:01:07.613Z,15.00
2023-01-25T02:03:37.534Z,12.83
2023-01-25T02:06:11.735Z,12.87
2023-01-25T02:08:43.707Z,12.70
2023-01-25T02:11:14.372Z,15.87
2023-01-25T02:13:45.958Z,13.13
2023-01-25T02:16:18.259Z,13.30
2023-01-25T02:18:47.243Z,13.00
2023-01-25T02:21:16.236Z,16.20
2023-01-25T02:23:54.781Z,14.43
2023-01-25T02:26:26.000Z,15.80
2023-01-25T02:28:59.937Z,13.50
2023-01-25T02:31:29.220Z,14.07
2023-01-25T02:33:58.429Z,15.47
2023-01-25T02:36:29.908Z,14.27
2023-01-25T02:39:02.047Z,14.90
2023-01-25T02:41:37.416Z,13.17
2023-01-25T02:44:09.219Z,16.30
2023-01-25T02:46:39.847Z,14.27
2023-01-25T02:49:10.538Z,14.30
2023-01-25T02:51:44.317Z,14.20
2023-01-25T02:54:14.880Z,15.87
2023-01-25T02:56:45.380Z,14.97
2023-01-25T02:59:14.293Z,16.63
2023-01-25T03:01:45.062Z,15.10
2023-01-25T03:04:13.945Z,14.00
2023-01-25T03:06:45.227Z,12.10
2023-01-25T03:09:14.435Z,14.40
2023-01-25T03:11:44.825Z,16.73
2023-01-25T03:14:13.762Z,16.67
2023-01-25T03:16:42.816Z,14.20
2023-01-25T03:19:11.809Z,14.27
2023-01-25T03:21:42.325Z,14.87
2023-01-25T03:24:14.442Z,15.40
2023-01-25T03:27:01.889Z,13.97
2023-01-25T03:29:30.988Z,13.73
2023-01-25T03:31:59.957Z,12.27
2023-01-25T03:34:28.987Z,15.77
2023-01-25T03:36:58.133Z,13.70
2023-01-25T03:39:27.412Z,15.00
2023-01-25T03:41:58.210Z,17.03
2023-01-25T03:44:27.594Z,15.87
2023-01-25T03:46:58.050Z,13.27
2023-01-25T03:49:28.229Z,15.17
2023-01-25T03:51:58.108Z,14.23
2023-01-25T03:54:28.541Z,14.67
2023-01-25T03:56:58.845Z,14.33
2023-01-25T03:59:27.737Z,14.20
2023-01-25T04:01:56.795Z,13.77
2023-01-25T04:04:25.862Z,16.03
2023-01-25T04:06:54.956Z,13.23
2023-01-25T04:09:23.867Z,15.13
2023-01-25T04:11:53.406Z,15.67
2023-01-25T04:14:42.522Z,15.80
2023-01-25T04:17:13.067Z,13.57
2023-01-25T04:19:44.855Z,15.53
2023-01-25T04:22:14.263Z,16.57
2023-01-25T04:24:43.078Z,16.70
2023-01-25T04:27:12.175Z,15.37
2023-01-25T04:29:42.529Z,16.43
2023-01-25T04:32:11.775Z,15.97
2023-01-25T04:34:40.628Z,15.27
2023-01-25T04:37:09.407Z,17.30
2023-01-25T04:39:38.298Z,16.87
2023-01-25T04:42:07.313Z,17.87
2023-01-25T04:44:36.616Z,16.07
2023-01-25T04:47:07.244Z,16.83
2023-01-25T04:49:36.511Z,16.87
2023-01-25T04:52:06.103Z,17.73
2023-01-25T04:54:35.280Z,13.30
2023-01-25T04:57:04.143Z,16.33
2023-01-25T04:59:38.632Z,17.10
2023-01-25T05:02:08.845Z,15.77
2023-01-25T05:04:37.778Z,16.53
2023-01-25T05:07:06.952Z,15.43
2023-01-25T05:09:36.006Z,15.63
2023-01-25T05:12:11.512Z,15.23
2023-01-25T05:14:40.653Z,15.43
2023-01-25T05:17:11.611Z,15.03
2023-01-25T05:19:40.513Z,16.60
2023-01-25T05:22:13.774Z,15.60
2023-01-25T05:24:42.934Z,15.90
2023-01-25T05:27:11.542Z,16.23
2023-01-25T05:29:41.997Z,15.97
2023-01-25T05:32:14.331Z,16.30
2023-01-25T05:34:50.131Z,13.97
2023-01-25T05:37:21.185Z,14.23
2023-01-25T05:39:50.065Z,16.30
2023-01-25T05:42:20.598Z,16.63
2023-01-25T05:44:49.366Z,14.00
2023-01-25T05:47:19.701Z,17.17
2023-01-25T05:49:48.686Z,17.20
2023-01-25T05:52:18.422Z,15.47
2023-01-25T05:54:47.418Z,14.97
2023-01-25T05:57:17.082Z,17.17
2023-01-25T05:59:45.971Z,14.80
2023-01-25T06:02:15.075Z,15.00
2023-01-25T06:04:45.484Z,16.20
2023-01-25T06:07:14.537Z,15.77
2023-01-25T06:09:43.475Z,16.07
2023-01-25T06:12:12.466Z,15.70
2023-01-25T06:14:41.339Z,14.70
2023-01-25T06:17:11.334Z,15.57
2023-01-25T06:19:40.095Z,15.77
2023-01-25T06:22:11.798Z,13.97
2023-01-25T06:24:40.647Z,18.30
2023-01-25T06:27:12.472Z,11.70
2023-01-25T06:29:41.383Z,15.10
2023-01-25T06:32:10.488Z,15.43
2023-01-25T06:34:39.747Z,14.20
2023-01-25T06:37:10.088Z,14.63
2023-01-25T06:39:38.893Z,13.93
2023-01-25T06:42:07.810Z,15.87
2023-01-25T06:44:36.962Z,14.17
2023-01-25T06:47:06.354Z,14.37
2023-01-25T06:49:35.317Z,13.73
2023-01-25T06:52:04.655Z,12.60
2023-01-25T06:54:35.372Z,14.93
2023-01-25T06:57:04.992Z,14.53
2023-01-25T06:59:36.987Z,12.80
2023-01-25T07:02:06.359Z,16.60
2023-01-25T07:04:35.273Z,14.77
2023-01-25T07:07:04.028Z,15.97
2023-01-25T07:09:34.178Z,15.73
2023-01-25T07:12:04.905Z,16.07
2023-01-25T07:14:35.345Z,15.70
2023-01-25T07:17:04.178Z,14.70
2023-01-25T07:19:33.126Z,13.63
2023-01-25T07:22:02.288Z,14.70
2023-01-25T07:24:31.234Z,15.33
2023-01-25T07:27:01.419Z,15.70
2023-01-25T07:29:30.291Z,15.13
2023-01-25T07:31:59.146Z,15.43
2023-01-25T07:34:29.000Z,16.97
2023-01-25T07:36:58.090Z,16.27
2023-01-25T07:39:27.007Z,17.43
2023-01-25T07:41:55.757Z,17.70
2023-01-25T07:44:25.983Z,15.20
2023-01-25T07:46:55.290Z,14.67
2023-01-25T07:49:24.419Z,15.37
2023-01-25T07:51:53.119Z,14.07
2023-01-25T07:54:21.994Z,16.67
2023-01-25T07:56:50.833Z,16.93
2023-01-25T07:59:19.620Z,19.10
2023-01-25T08:01:49.819Z,17.40
2023-01-25T08:04:18.727Z,17.10
2023-01-25T08:06:47.353Z,14.97
2023-01-25T08:09:20.696Z,16.43
2023-01-25T08:11:50.032Z,16.73
2023-01-25T08:14:18.801Z,17.17
2023-01-25T08:16:47.625Z,15.23
2023-01-25T08:19:20.228Z,17.73
2023-01-25T08:21:49.626Z,16.90
2023-01-25T08:24:20.673Z,15.20
2023-01-25T08:26:49.635Z,15.70
2023-01-25T08:29:18.849Z,17.83
2023-01-25T08:31:47.740Z,16.77
2023-01-25T08:34:18.172Z,18.50
2023-01-25T08:36:47.302Z,14.63
2023-01-25T08:39:17.906Z,19.47
2023-01-25T08:41:46.618Z,15.87
2023-01-25T08:44:15.273Z,20.33
2023-01-25T08:46:45.047Z,15.83
2023-01-25T08:49:13.798Z,20.50
2023-01-25T08:51:44.061Z,15.63
2023-01-25T08:54:13.983Z,16.67
2023-01-25T08:56:43.099Z,16.33
2023-01-25T08:59:13.584Z,17.90
2023-01-25T09:01:43.667Z,17.83
2023-01-25T09:04:12.535Z,16.37
2023-01-25T09:06:41.596Z,20.07
2023-01-25T09:09:13.707Z,17.67
2023-01-25T09:11:42.482Z,17.40
2023-01-25T09:14:11.337Z,19.00
2023-01-25T09:16:40.105Z,17.13
2023-01-25T09:19:08.783Z,16.87
2023-01-25T09:21:37.741Z,17.07
2023-01-25T09:24:08.351Z,17.80
2023-01-25T09:26:42.799Z,19.40
2023-01-25T09:29:12.705Z,17.90
2023-01-25T09:31:44.184Z,15.70
2023-01-25T09:34:14.563Z,18.40
2023-01-25T09:36:43.588Z,17.97
2023-01-25T09:39:13.343Z,17.37
2023-01-25T09:42:15.645Z,17.30
2023-01-25T09:45:06.989Z,19.20
2023-01-25T09:47:44.759Z,15.50
2023-01-25T09:50:26.765Z,18.93
2023-01-25T09:53:17.512Z,16.20
2023-01-25T09:55:54.020Z,17.73
2023-01-25T09:58:31.991Z,17.83
2023-01-25T10:01:14.521Z,18.73
2023-01-25T10:03:51.439Z,18.73
2023-01-25T10:06:24.345Z,18.17
2023-01-25T10:09:01.900Z,16.80
2023-01-25T10:11:32.742Z,19.20
2023-01-25T10:14:02.947Z,17.83
2023-01-25T10:16:38.619Z,19.67
2023-01-25T10:19:20.252Z,17.27
2023-01-25T10:21:52.577Z,19.37
2023-01-25T10:24:38.094Z,19.40
2023-01-25T10:27:21.946Z,15.90
2023-01-25T10:29:57.560Z,18.43
2023-01-25T10:32:31.935Z,16.60
2023-01-25T10:35:22.752Z,16.33
2023-01-25T10:38:02.989Z,15.57
2023-01-25T10:40:39.748Z,20.17
2023-01-25T10:43:16.461Z,17.33
2023-01-25T10:45:46.689Z,17.87
2023-01-25T10:48:20.804Z,19.70
2023-01-25T10:50:52.840Z,17.83
2023-01-25T10:53:31.052Z,19.00
2023-01-25T10:56:23.347Z,17.00
2023-01-25T10:58:55.446Z,17.73
2023-01-25T11:01:30.377Z,19.70
2023-01-25T11:03:59.739Z,17.43
2023-01-25T11:06:34.455Z,20.10
2023-01-25T11:09:23.966Z,17.10
2023-01-25T11:11:56.789Z,17.50
2023-01-25T11:14:27.651Z,21.67
2023-01-25T11:16:59.340Z,19.00
2023-01-25T11:19:32.929Z,17.57
2023-01-25T11:22:03.693Z,17.10
2023-01-25T11:24:34.726Z,17.93
2023-01-25T11:27:19.236Z,17.67
2023-01-25T11:30:07.998Z,16.20
2023-01-25T11:32:39.926Z,20.77
2023-01-25T11:35:15.024Z,16.43
2023-01-25T11:37:59.796Z,18.10
2023-01-25T11:40:35.493Z,18.13
2023-01-25T11:43:17.125Z,18.40
2023-01-25T11:46:03.724Z,19.10
2023-01-25T11:49:15.341Z,19.13
2023-01-25T11:51:52.889Z,18.10
2023-01-25T11:54:37.486Z,20.03
2023-01-25T11:57:17.696Z,19.50
2023-01-25T12:00:01.504Z,18.90
2023-01-25T12:03:02.742Z,20.80
2023-01-25T12:05:50.930Z,17.53
2023-01-25T12:08:43.516Z,21.67
2023-01-25T12:11:25.506Z,19.00
2023-01-25T12:14:05.417Z,18.00
2023-01-25T12:16:52.611Z,17.03
2023-01-25T12:19:38.769Z,18.17
2023-01-25T12:22:32.397Z,19.93
2023-01-25T12:25:11.391Z,19.57
2023-01-25T12:27:51.125Z,18.73
2023-01-25T12:30:27.201Z,20.93
2023-01-25T12:33:13.938Z,22.07
2023-01-25T12:35:47.986Z,20.67
2023-01-25T12:38:24.217Z,18.00
2023-01-25T12:40:56.725Z,18.93
2023-01-25T12:43:30.620Z,19.83
2023-01-25T12:46:04.312Z,18.40
2023-01-25T12:48:36.807Z,18.40
2023-01-25T12:51:06.212Z,19.30
2023-01-25T12:53:40.721Z,20.40
2023-01-25T12:56:19.258Z,17.87
2023-01-25T12:58:56.176Z,17.23
2023-01-25T13:01:33.906Z,21.60
2023-01-25T13:04:17.327Z,19.43
2023-01-25T13:06:51.358Z,18.73
2023-01-25T13:09:30.003Z,18.37
2023-01-25T13:12:00.936Z,19.03
2023-01-25T13:14:31.812Z,20.63
2023-01-25T13:17:13.687Z,16.60
2023-01-25T13:19:43.672Z,18.70
2023-01-25T13:22:38.827Z,21.37
2023-01-25T13:25:21.633Z,17.17
2023-01-25T13:28:32.371Z,18.57
2023-01-25T13:31:01.310Z,16.07
2023-01-25T13:33:37.408Z,20.23
2023-01-25T13:36:39.864Z,15.63
2023-01-25T13:39:42.771Z,19.13
2023-01-25T13:42:23.817Z,19.37
2023-01-25T13:44:55.092Z,18.60
2023-01-25T13:47:26.178Z,20.43
2023-01-25T13:50:01.355Z,19.73
2023-01-25T13:52:32.358Z,20.17
2023-01-25T13:55:01.248Z,21.33
2023-01-25T13:57:33.077Z,20.53
2023-01-25T14:00:10.743Z,17.43
2023-01-25T14:02:41.725Z,18.67
2023-01-25T14:05:20.134Z,19.70
2023-01-25T14:07:50.479Z,19.30
2023-01-25T14:10:24.180Z,19.73
2023-01-25T14:12:59.261Z,18.40
2023-01-25T14:15:29.719Z,18.17
2023-01-25T14:18:16.729Z,20.57
2023-01-25T14:20:46.629Z,18.53
2023-01-25T14:23:26.337Z,18.20
2023-01-25T14:25:59.195Z,17.13
2023-01-25T14:28:30.999Z,20.53
2023-01-25T14:31:01.392Z,16.60
2023-01-25T14:33:32.276Z,17.23
2023-01-25T14:36:16.397Z,18.33
2023-01-25T14:38:52.736Z,17.20
2023-01-25T14:41:25.678Z,17.63
2023-01-25T14:43:58.132Z,17.83
2023-01-25T14:46:29.769Z,19.57
2023-01-25T14:49:25.758Z,15.80
2023-01-25T14:52:06.359Z,19.93
2023-01-25T14:54:38.005Z,21.00
2023-01-25T14:57:08.418Z,17.93
2023-01-25T14:59:41.107Z,18.10
2023-01-25T15:02:22.655Z,17.90
2023-01-25T15:05:10.814Z,15.70
2023-01-25T15:07:46.376Z,17.63
2023-01-25T15:10:20.825Z,18.27
2023-01-25T15:13:12.445Z,19.13
2023-01-25T15:15:55.386Z,19.53
2023-01-25T15:18:42.423Z,17.83
2023-01-25T15:21:13.133Z,15.63
2023-01-25T15:23:43.274Z,17.23
2023-01-25T15:26:19.431Z,16.70
2023-01-25T15:28:48.588Z,18.77
2023-01-25T15:31:21.260Z,18.53
2023-01-25T15:33:50.474Z,16.87
2023-01-25T15:36:20.586Z,17.53
2023-01-25T15:38:49.459Z,17.63
2023-01-25T15:41:18.818Z,19.07
2023-01-25T15:43:48.766Z,18.80
2023-01-25T15:46:23.034Z,17.53
2023-01-25T15:48:53.214Z,16.13
2023-01-25T15:51:22.616Z,17.87
2023-01-25T15:53:51.608Z,19.03
2023-01-25T15:56:22.719Z,19.30
2023-01-25T15:58:53.367Z,17.33
2023-01-25T16:01:29.705Z,18.87
2023-01-25T16:03:59.895Z,18.27
2023-01-25T16:06:40.096Z,16.23
2023-01-25T16:09:16.277Z,16.80
2023-01-25T16:11:45.639Z,18.43
2023-01-25T16:14:14.276Z,15.47
2023-01-25T16:16:47.069Z,16.17
2023-01-25T16:19:16.908Z,18.10
2023-01-25T16:21:45.645Z,16.47
2023-01-25T16:24:14.819Z,16.90
2023-01-25T16:26:46.704Z,17.90
2023-01-25T16:29:15.382Z,16.70
2023-01-25T16:31:45.531Z,16.03
2023-01-25T16:34:14.395Z,17.37
2023-01-25T16:36:47.837Z,16.30
2023-01-25T16:39:20.101Z,17.77
2023-01-25T16:41:49.678Z,17.90
2023-01-25T16:44:19.057Z,17.77
2023-01-25T16:46:50.451Z,14.60
2023-01-25T16:49:20.926Z,17.03
2023-01-25T16:51:50.724Z,18.10
2023-01-25T16:54:20.663Z,18.53
2023-01-25T16:56:50.935Z,18.47
2023-01-25T16:59:20.174Z,19.63
2023-01-25T17:01:50.600Z,18.43
2023-01-25T17:04:19.556Z,17.80
2023-01-25T17:06:50.427Z,19.30
2023-01-25T17:09:24.187Z,18.83
2023-01-25T17:11:54.248Z,19.33
2023-01-25T17:14:23.737Z,18.87
2023-01-25T17:16:54.463Z,19.53
2023-01-25T17:19:23.670Z,19.03
2023-01-25T17:21:52.359Z,18.80
2023-01-25T17:24:22.442Z,21.00
2023-01-25T17:26:51.977Z,22.27
2023-01-25T17:29:21.982Z,17.90
2023-01-25T17:31:50.847Z,18.67
2023-01-25T17:34:22.000Z,20.23
2023-01-25T17:36:52.692Z,18.67
2023-01-25T17:39:22.738Z,20.97
2023-01-25T17:41:52.415Z,18.53
2023-01-25T17:44:22.846Z,20.63
2023-01-25T17:46:53.007Z,18.67
2023-01-25T17:49:24.520Z,20.13
2023-01-25T17:51:53.473Z,19.37
2023-01-25T17:54:22.279Z,17.67
2023-01-25T17:56:51.277Z,18.47
2023-01-25T17:59:20.248Z,22.27
2023-01-25T18:01:49.404Z,20.80
2023-01-25T18:04:19.275Z,20.70
2023-01-25T18:06:49.542Z,20.50
2023-01-25T18:09:18.359Z,19.70
2023-01-25T18:11:48.061Z,19.60
2023-01-25T18:14:18.734Z,19.33
2023-01-25T18:16:47.618Z,21.43
2023-01-25T18:19:16.415Z,20.57
2023-01-25T18:21:45.017Z,22.37
2023-01-25T18:24:31.950Z,18.50
2023-01-25T18:27:05.128Z,17.87
2023-01-25T18:29:45.721Z,19.00
2023-01-25T18:32:15.415Z,16.93
2023-01-25T18:34:44.469Z,20.30
2023-01-25T18:37:23.459Z,17.60
2023-01-25T18:39:55.521Z,18.10
2023-01-25T18:42:26.387Z,18.47
2023-01-25T18:44:55.338Z,19.53
2023-01-25T18:47:25.092Z,17.47
2023-01-25T18:49:54.796Z,18.80
2023-01-25T18:52:24.849Z,19.20
2023-01-25T18:54:55.502Z,18.23
2023-01-25T18:57:25.019Z,19.67
2023-01-25T18:59:54.588Z,20.23
2023-01-25T19:02:24.082Z,19.07
2023-01-25T19:04:52.862Z,20.47
2023-01-25T19:07:21.541Z,20.37
2023-01-25T19:09:50.444Z,20.23
2023-01-25T19:12:20.758Z,18.10
2023-01-25T19:14:49.808Z,19.10
2023-01-25T19:17:18.873Z,19.43
2023-01-25T19:19:47.732Z,20.80
2023-01-25T19:22:16.622Z,17.80
2023-01-25T19:24:45.299Z,20.83
2023-01-25T19:27:14.241Z,16.97
2023-01-25T19:29:44.608Z,20.63
2023-01-25T19:32:13.538Z,21.17
2023-01-25T19:34:42.261Z,22.03
2023-01-25T19:37:10.972Z,19.77
2023-01-25T19:39:39.696Z,19.27
2023-01-25T19:42:08.532Z,20.10
2023-01-25T19:44:37.565Z,19.90
2023-01-25T19:47:07.763Z,21.47
2023-01-25T19:49:36.592Z,23.00
2023-01-25T19:52:14.553Z,18.30
2023-01-25T19:54:43.267Z,19.03
2023-01-25T19:57:12.068Z,17.67
2023-01-25T19:59:43.564Z,20.27
2023-01-25T20:02:13.942Z,21.40
2023-01-25T20:04:42.652Z,23.07
2023-01-25T20:07:13.535Z,18.03
2023-01-25T20:09:45.150Z,19.67
2023-01-25T20:12:14.212Z,18.43
2023-01-25T20:14:43.589Z,19.23
2023-01-25T20:17:14.293Z,19.00
2023-01-25T20:19:44.049Z,16.23
2023-01-25T20:22:14.015Z,16.03
2023-01-25T20:24:43.297Z,19.60
2023-01-25T20:27:12.173Z,19.97
2023-01-25T20:29:41.174Z,18.33
2023-01-25T20:32:17.097Z,19.70
2023-01-25T20:35:06.521Z,20.83
2023-01-25T20:37:35.275Z,21.50
2023-01-25T20:40:04.108Z,18.00
2023-01-25T20:42:32.845Z,17.27
2023-01-25T20:45:01.784Z,19.00
2023-01-25T20:47:30.605Z,18.17
2023-01-25T20:50:00.771Z,17.93
2023-01-25T20:52:29.530Z,18.17
2023-01-25T20:54:58.679Z,20.67
2023-01-25T20:57:30.503Z,19.63
2023-01-25T20:59:59.340Z,22.07
2023-01-25T21:02:28.124Z,21.67
2023-01-25T21:04:56.831Z,22.27
2023-01-25T21:07:27.124Z,21.43
2023-01-25T21:09:56.785Z,24.10
2023-01-25T21:12:27.916Z,23.27
2023-01-25T21:14:58.757Z,21.00
2023-01-25T21:17:27.526Z,18.77
2023-01-25T21:19:58.040Z,22.70
2023-01-25T21:22:29.941Z,23.00
2023-01-25T21:24:58.878Z,22.43
2023-01-25T21:27:29.685Z,20.73
2023-01-25T21:29:58.797Z,18.63
2023-01-25T21:32:27.779Z,19.00
2023-01-25T21:34:56.538Z,22.00
2023-01-25T21:37:26.507Z,21.60
2023-01-25T21:39:56.649Z,21.97
2023-01-25T21:42:28.297Z,22.47
2023-01-25T21:45:14.462Z,24.70
2023-01-25T21:47:43.555Z,18.60
2023-01-25T21:50:33.097Z,21.63
2023-01-25T21:53:03.795Z,22.27
2023-01-25T21:55:34.082Z,23.03
2023-01-25T21:58:03.168Z,20.50
2023-01-25T22:00:32.240Z,20.27
2023-01-25T22:03:04.336Z,19.00
2023-01-25T22:05:33.479Z,19.53
2023-01-25T22:08:02.667Z,20.17
2023-01-25T22:10:31.808Z,22.30
2023-01-25T22:13:03.698Z,20.63
2023-01-25T22:15:33.967Z,19.10
2023-01-25T22:18:03.114Z,18.83
2023-01-25T22:20:32.093Z,20.80
2023-01-25T22:23:08.629Z,21.27
2023-01-25T22:25:43.205Z,21.10
2023-01-25T22:28:19.389Z,18.50
2023-01-25T22:30:48.864Z,21.13
2023-01-25T22:33:18.716Z,20.57
2023-01-25T22:35:47.620Z,22.53
2023-01-25T22:38:19.378Z,21.57
2023-01-25T22:40:48.266Z,21.53
2023-01-25T22:43:18.693Z,21.30
2023-01-25T22:45:52.335Z,21.30
2023-01-25T22:48:24.379Z,20.10
2023-01-25T22:50:53.384Z,20.10
2023-01-25T22:53:23.337Z,18.73
2023-01-25T22:55:52.596Z,18.30
2023-01-25T22:58:23.491Z,20.50
2023-01-25T23:00:52.550Z,19.27
2023-01-25T23:03:21.594Z,17.90
2023-01-25T23:05:50.608Z,20.17
2023-01-25T23:08:19.480Z,19.63
2023-01-25T23:10:48.468Z,19.20
2023-01-25T23:13:17.442Z,20.47
2023-01-25T23:15:47.833Z,20.70
2023-01-25T23:18:34.029Z,20.60
2023-01-25T23:21:04.127Z,18.70
2023-01-25T23:23:35.869Z,20.60
2023-01-25T23:26:05.083Z,19.53
2023-01-25T23:28:33.909Z,20.97
2023-01-25T23:31:18.739Z,17.50
2023-01-25T23:33:50.570Z,20.33
2023-01-25T23:36:21.995Z,18.30
2023-01-25T23:38:51.610Z,18.83
2023-01-25T23:41:22.483Z,19.77
2023-01-25T23:43:51.417Z,16.80
2023-01-25T23:46:21.942Z,21.23
2023-01-25T23:48:51.222Z,18.23
2023-01-25T23:51:20.262Z,18.63
2023-01-25T23:53:49.225Z,16.53
2023-01-25T23:56:24.783Z,18.50
2023-01-25T23:58:54.028Z,18.53
